sensor_id;sensor_type;location;lat;lon;timestamp;P1;P2;P0
73973;PMS5003;62336;-26.094;27.994;2022-12-07T03:55:33;4;4;
73973;PMS5003;62336;-26.094;27.994;2022-12-07T03:57:58;4;4;
73973;PMS5003;62336;-26.094;27.994;2022-12-07T04:00:23;5;5;
73973;PMS5003;62336;-26.094;27.994;2022-12-07T04:02:51;3;3;
73973;PMS5003;62336;-26.094;27.994;2022-12-07T04:05:15;3;3;
73973;PMS5003;62336;-26.094;27.994;2022-12-07T04:07:40;5;5;
73973;PMS5003;62336;-26.094;27.994;2022-12-07T04:10:07;4;4;
73973;PMS5003;62336;-26.094;27.994;2022-12-07T04:12:32;5;5;
73973;PMS5003;62336;-26.094;27.994;2022-12-07T04:14:58;3;3;
73973;PMS5003;62336;-26.094;27.994;2022-12-07T04:17:24;5;5;
73973;PMS5003;62336;-26.094;27.994;2022-12-07T04:19:50;6;5;
73973;PMS5003;62336;-26.094;27.994;2022-12-07T04:22:16;3;3;
73973;PMS5003;62336;-26.094;27.994;2022-12-07T04:24:41;5;4;
73973;PMS5003;62336;-26.094;27.994;2022-12-07T04:27:08;4;4;
73973;PMS5003;62336;-26.094;27.994;2022-12-07T04:29:33;5;4;
73973;PMS5003;62336;-26.094;27.994;2022-12-07T04:31:59;4;4;
73973;PMS5003;62336;-26.094;27.994;2022-12-07T04:34:25;7;7;
73973;PMS5003;62336;-26.094;27.994;2022-12-07T04:36:51;5;5;
73973;PMS5003;62336;-26.094;27.994;2022-12-07T04:39:19;5;5;
73973;PMS5003;62336;-26.094;27.994;2022-12-07T04:41:42;8;6;
73973;PMS5003;62336;-26.094;27.994;2022-12-07T04:44:08;5;4;
73973;PMS5003;62336;-26.094;27.994;2022-12-07T04:46:34;4;4;
73973;PMS5003;62336;-26.094;27.994;2022-12-07T04:49:00;5;5;
73973;PMS5003;62336;-26.094;27.994;2022-12-07T04:51:26;4;4;
73973;PMS5003;62336;-26.094;27.994;2022-12-07T04:53:51;5;5;
73973;PMS5003;62336;-26.094;27.994;2022-12-07T04:56:17;7;7;
73973;PMS5003;62336;-26.094;27.994;2022-12-07T04:58:44;6;6;
73973;PMS5003;62336;-26.094;27.994;2022-12-07T05:01:09;6;6;
73973;PMS5003;62336;-26.094;27.994;2022-12-07T05:03:35;6;6;
73973;PMS5003;62336;-26.094;27.994;2022-12-07T05:06:00;3;3;
73973;PMS5003;62336;-26.094;27.994;2022-12-07T05:08:26;6;6;
73973;PMS5003;62336;-26.094;27.994;2022-12-07T05:10:52;6;5;
73973;PMS5003;62336;-26.094;27.994;2022-12-07T05:13:18;5;5;
73973;PMS5003;62336;-26.094;27.994;2022-12-07T05:15:44;6;5;
73973;PMS5003;62336;-26.094;27.994;2022-12-07T05:18:10;7;7;
73973;PMS5003;62336;-26.094;27.994;2022-12-07T05:20:35;7;5;
73973;PMS5003;62336;-26.094;27.994;2022-12-07T05:23:01;9;8;
73973;PMS5003;62336;-26.094;27.994;2022-12-07T05:25:27;6;6;
73973;PMS5003;62336;-26.094;27.994;2022-12-07T05:27:54;7;7;
73973;PMS5003;62336;-26.094;27.994;2022-12-07T05:30:19;7;7;
73973;PMS5003;62336;-26.094;27.994;2022-12-07T05:32:45;5;5;
73973;PMS5003;62336;-26.094;27.994;2022-12-07T05:35:10;4;4;
73973;PMS5003;62336;-26.094;27.994;2022-12-07T05:37:36;6;5;
73973;PMS5003;62336;-26.094;27.994;2022-12-07T05:40:02;4;3;
73973;PMS5003;62336;-26.094;27.994;2022-12-07T05:42:28;6;6;
73973;PMS5003;62336;-26.094;27.994;2022-12-07T05:44:54;6;6;
73973;PMS5003;62336;-26.094;27.994;2022-12-07T05:47:20;7;6;
73973;PMS5003;62336;-26.094;27.994;2022-12-07T05:49:44;4;4;
73973;PMS5003;62336;-26.094;27.994;2022-12-07T05:52:10;4;3;
73973;PMS5003;62336;-26.094;27.994;2022-12-07T05:54:36;6;5;
73973;PMS5003;62336;-26.094;27.994;2022-12-07T05:57:02;5;5;
73973;PMS5003;62336;-26.094;27.994;2022-12-07T05:59:28;3;3;
73973;PMS5003;62336;-26.094;27.994;2022-12-07T06:01:54;4;4;
73973;PMS5003;62336;-26.094;27.994;2022-12-07T07:16:40;0;0;
73973;PMS5003;62336;-26.094;27.994;2022-12-07T07:19:04;3;3;
73973;PMS5003;62336;-26.094;27.994;2022-12-07T07:21:30;3;3;
73973;PMS5003;62336;-26.094;27.994;2022-12-07T07:23:57;6;6;
73973;PMS5003;62336;-26.094;27.994;2022-12-07T07:26:22;4;4;
73973;PMS5003;62336;-26.094;27.994;2022-12-07T07:28:48;4;3;
73973;PMS5003;62336;-26.094;27.994;2022-12-07T07:31:14;5;4;
73973;PMS5003;62336;-26.094;27.994;2022-12-07T07:33:39;2;2;
73973;PMS5003;62336;-26.094;27.994;2022-12-07T07:36:06;3;3;
73973;PMS5003;62336;-26.094;27.994;2022-12-07T07:38:31;3;3;
73973;PMS5003;62336;-26.094;27.994;2022-12-07T07:40:57;7;6;
73973;PMS5003;62336;-26.094;27.994;2022-12-07T07:43:23;3;3;
73973;PMS5003;62336;-26.094;27.994;2022-12-07T07:45:48;3;3;
73973;PMS5003;62336;-26.094;27.994;2022-12-07T07:48:14;4;4;
73973;PMS5003;62336;-26.094;27.994;2022-12-07T07:50:40;2;2;
73973;PMS5003;62336;-26.094;27.994;2022-12-07T07:53:06;3;3;
73973;PMS5003;62336;-26.094;27.994;2022-12-07T07:55:32;5;5;
73973;PMS5003;62336;-26.094;27.994;2022-12-07T07:57:57;3;3;
73973;PMS5003;62336;-26.094;27.994;2022-12-07T08:00:24;4;4;
73973;PMS5003;62336;-26.094;27.994;2022-12-07T08:02:49;3;3;
73973;PMS5003;62336;-26.094;27.994;2022-12-07T08:05:34;3;3;
73973;PMS5003;62336;-26.094;27.994;2022-12-07T08:07:54;3;3;
73973;PMS5003;62336;-26.094;27.994;2022-12-07T08:10:20;3;3;
73973;PMS5003;62336;-26.094;27.994;2022-12-07T08:12:46;3;3;
73973;PMS5003;62336;-26.094;27.994;2022-12-07T08:15:12;4;4;
73973;PMS5003;62336;-26.094;27.994;2022-12-07T08:17:38;6;6;
73973;PMS5003;62336;-26.094;27.994;2022-12-07T08:20:05;4;4;
73973;PMS5003;62336;-26.094;27.994;2022-12-07T08:22:29;4;4;
73973;PMS5003;62336;-26.094;27.994;2022-12-07T08:24:57;3;3;
73973;PMS5003;62336;-26.094;27.994;2022-12-07T08:27:21;4;4;
73973;PMS5003;62336;-26.094;27.994;2022-12-07T08:29:47;3;3;
73973;PMS5003;62336;-26.094;27.994;2022-12-07T08:32:13;3;3;
73973;PMS5003;62336;-26.094;27.994;2022-12-07T08:34:39;3;2;
73973;PMS5003;62336;-26.094;27.994;2022-12-07T08:37:05;3;3;
73973;PMS5003;62336;-26.094;27.994;2022-12-07T08:39:30;3;3;
73973;PMS5003;62336;-26.094;27.994;2022-12-07T08:41:57;2;2;
73973;PMS5003;62336;-26.094;27.994;2022-12-07T08:44:22;3;3;
73973;PMS5003;62336;-26.094;27.994;2022-12-07T08:46:48;2;2;
73973;PMS5003;62336;-26.094;27.994;2022-12-07T08:49:16;3;3;
73973;PMS5003;62336;-26.094;27.994;2022-12-07T08:51:40;2;2;
73973;PMS5003;62336;-26.094;27.994;2022-12-07T08:54:06;2;2;
73973;PMS5003;62336;-26.094;27.994;2022-12-07T08:56:31;4;3;
73973;PMS5003;62336;-26.094;27.994;2022-12-07T08:58:57;3;3;
73973;PMS5003;62336;-26.094;27.994;2022-12-07T09:01:25;2;2;
73973;PMS5003;62336;-26.094;27.994;2022-12-07T09:03:49;3;2;
73973;PMS5003;62336;-26.094;27.994;2022-12-07T09:06:15;2;2;
73973;PMS5003;62336;-26.094;27.994;2022-12-07T09:08:41;1;1;
73973;PMS5003;62336;-26.094;27.994;2022-12-07T09:11:06;1;1;
73973;PMS5003;62336;-26.094;27.994;2022-12-07T09:13:32;4;4;
73973;PMS5003;62336;-26.094;27.994;2022-12-07T09:15:58;2;2;
73973;PMS5003;62336;-26.094;27.994;2022-12-07T09:18:24;2;2;
73973;PMS5003;62336;-26.094;27.994;2022-12-07T09:20:50;2;2;
73973;PMS5003;62336;-26.094;27.994;2022-12-07T09:23:15;2;2;
73973;PMS5003;62336;-26.094;27.994;2022-12-07T09:25:42;3;2;
73973;PMS5003;62336;-26.094;27.994;2022-12-07T09:28:07;0;0;
73973;PMS5003;62336;-26.094;27.994;2022-12-07T09:30:33;2;2;
73973;PMS5003;62336;-26.094;27.994;2022-12-07T09:32:59;3;3;
73973;PMS5003;62336;-26.094;27.994;2022-12-07T09:35:25;1;1;
73973;PMS5003;62336;-26.094;27.994;2022-12-07T09:37:51;3;3;
73973;PMS5003;62336;-26.094;27.994;2022-12-07T09:40:17;2;2;
73973;PMS5003;62336;-26.094;27.994;2022-12-07T09:42:44;2;2;
73973;PMS5003;62336;-26.094;27.994;2022-12-07T09:45:11;2;2;
73973;PMS5003;62336;-26.094;27.994;2022-12-07T09:47:34;3;3;
73973;PMS5003;62336;-26.094;27.994;2022-12-07T09:50:03;2;2;
73973;PMS5003;62336;-26.094;27.994;2022-12-07T09:52:26;2;2;
73973;PMS5003;62336;-26.094;27.994;2022-12-07T09:54:52;1;1;
73973;PMS5003;62336;-26.094;27.994;2022-12-07T09:57:17;1;1;
73973;PMS5003;62336;-26.094;27.994;2022-12-07T09:59:43;3;2;
73973;PMS5003;62336;-26.094;27.994;2022-12-07T10:04:36;3;3;
73973;PMS5003;62336;-26.094;27.994;2022-12-07T10:07:00;3;3;
73973;PMS5003;62336;-26.094;27.994;2022-12-07T10:09:28;1;1;
73973;PMS5003;62336;-26.094;27.994;2022-12-07T10:14:18;3;3;
73973;PMS5003;62336;-26.094;27.994;2022-12-07T10:16:44;2;2;
73973;PMS5003;62336;-26.094;27.994;2022-12-07T10:19:19;4;4;
73973;PMS5003;62336;-26.094;27.994;2022-12-07T10:21:36;1;1;
73973;PMS5003;62336;-26.094;27.994;2022-12-07T10:24:02;2;2;
73973;PMS5003;62336;-26.094;27.994;2022-12-07T10:26:29;1;1;
73973;PMS5003;62336;-26.094;27.994;2022-12-07T10:28:53;2;2;
73973;PMS5003;62336;-26.094;27.994;2022-12-07T10:31:20;1;1;
73973;PMS5003;62336;-26.094;27.994;2022-12-07T10:33:49;4;2;
73973;PMS5003;62336;-26.094;27.994;2022-12-07T10:36:17;2;2;
73973;PMS5003;62336;-26.094;27.994;2022-12-07T10:38:37;4;4;
73973;PMS5003;62336;-26.094;27.994;2022-12-07T10:41:03;2;2;
73973;PMS5003;62336;-26.094;27.994;2022-12-07T10:43:29;4;4;
73973;PMS5003;62336;-26.094;27.994;2022-12-07T10:46:05;3;3;
73973;PMS5003;62336;-26.094;27.994;2022-12-07T10:48:21;5;5;
73973;PMS5003;62336;-26.094;27.994;2022-12-07T10:50:49;3;3;
73973;PMS5003;62336;-26.094;27.994;2022-12-07T10:55:40;5;5;
73973;PMS5003;62336;-26.094;27.994;2022-12-07T10:58:07;3;3;
73973;PMS5003;62336;-26.094;27.994;2022-12-07T11:00:28;4;4;
73973;PMS5003;62336;-26.094;27.994;2022-12-07T11:05:21;6;6;
73973;PMS5003;62336;-26.094;27.994;2022-12-07T11:07:47;5;5;
73973;PMS5003;62336;-26.094;27.994;2022-12-07T11:10:13;5;5;
73973;PMS5003;62336;-26.094;27.994;2022-12-07T11:12:41;6;6;
73973;PMS5003;62336;-26.094;27.994;2022-12-07T11:15:03;4;4;
73973;PMS5003;62336;-26.094;27.994;2022-12-07T11:17:31;4;4;
73973;PMS5003;62336;-26.094;27.994;2022-12-07T11:19:59;4;4;
73973;PMS5003;62336;-26.094;27.994;2022-12-07T11:22:20;5;5;
73973;PMS5003;62336;-26.094;27.994;2022-12-07T11:24:47;2;2;
73973;PMS5003;62336;-26.094;27.994;2022-12-07T11:27:15;5;5;
73973;PMS5003;62336;-26.094;27.994;2022-12-07T11:29:41;5;5;
73973;PMS5003;62336;-26.094;27.994;2022-12-07T11:32:04;4;3;
73973;PMS5003;62336;-26.094;27.994;2022-12-07T11:34:31;5;5;
73973;PMS5003;62336;-26.094;27.994;2022-12-07T11:36:54;5;5;
73973;PMS5003;62336;-26.094;27.994;2022-12-07T11:39:22;7;6;
73973;PMS5003;62336;-26.094;27.994;2022-12-07T11:41:47;5;5;
73973;PMS5003;62336;-26.094;27.994;2022-12-07T11:44:16;5;5;
73973;PMS5003;62336;-26.094;27.994;2022-12-07T11:46:42;5;5;
73973;PMS5003;62336;-26.094;27.994;2022-12-07T11:49:03;3;3;
73973;PMS5003;62336;-26.094;27.994;2022-12-07T11:51:28;3;3;
73973;PMS5003;62336;-26.094;27.994;2022-12-07T11:53:54;3;3;
73973;PMS5003;62336;-26.094;27.994;2022-12-07T11:56:20;4;4;
73973;PMS5003;62336;-26.094;27.994;2022-12-07T11:58:48;4;4;
73973;PMS5003;62336;-26.094;27.994;2022-12-07T12:01:14;3;3;
73973;PMS5003;62336;-26.094;27.994;2022-12-07T12:03:37;6;6;
73973;PMS5003;62336;-26.094;27.994;2022-12-07T12:06:02;4;4;
73973;PMS5003;62336;-26.094;27.994;2022-12-07T12:08:29;4;4;
73973;PMS5003;62336;-26.094;27.994;2022-12-07T12:10:55;6;6;
73973;PMS5003;62336;-26.094;27.994;2022-12-07T12:15:51;3;3;
73973;PMS5003;62336;-26.094;27.994;2022-12-07T12:18:16;1;1;
73973;PMS5003;62336;-26.094;27.994;2022-12-07T12:20:39;2;2;
73973;PMS5003;62336;-26.094;27.994;2022-12-07T12:23:05;2;2;
73973;PMS5003;62336;-26.094;27.994;2022-12-07T12:25:29;2;2;
73973;PMS5003;62336;-26.094;27.994;2022-12-07T12:27:55;4;3;
73973;PMS5003;62336;-26.094;27.994;2022-12-07T12:30:30;3;3;
73973;PMS5003;62336;-26.094;27.994;2022-12-07T12:32:46;3;3;
73973;PMS5003;62336;-26.094;27.994;2022-12-07T12:35:21;2;2;
73973;PMS5003;62336;-26.094;27.994;2022-12-07T12:37:40;3;3;
73973;PMS5003;62336;-26.094;27.994;2022-12-07T12:42:42;4;4;
73973;PMS5003;62336;-26.094;27.994;2022-12-07T12:54:39;3;3;
73973;PMS5003;62336;-26.094;27.994;2022-12-07T12:57:05;2;2;
73973;PMS5003;62336;-26.094;27.994;2022-12-07T12:59:31;3;3;
73973;PMS5003;62336;-26.094;27.994;2022-12-07T13:06:48;3;3;
73973;PMS5003;62336;-26.094;27.994;2022-12-07T13:09:18;3;2;
73973;PMS5003;62336;-26.094;27.994;2022-12-07T13:11:40;2;2;
73973;PMS5003;62336;-26.094;27.994;2022-12-07T13:16:37;3;3;
73973;PMS5003;62336;-26.094;27.994;2022-12-07T13:18:57;1;1;
73973;PMS5003;62336;-26.094;27.994;2022-12-07T13:23:54;1;1;
73973;PMS5003;62336;-26.094;27.994;2022-12-07T13:26:15;3;3;
73973;PMS5003;62336;-26.094;27.994;2022-12-07T13:28:41;3;3;
73973;PMS5003;62336;-26.094;27.994;2022-12-07T13:31:11;3;3;
73973;PMS5003;62336;-26.094;27.994;2022-12-07T13:33:32;3;3;
73973;PMS5003;62336;-26.094;27.994;2022-12-07T13:35:58;3;3;
73973;PMS5003;62336;-26.094;27.994;2022-12-07T13:38:25;3;3;
73973;PMS5003;62336;-26.094;27.994;2022-12-07T13:43:15;4;3;
73973;PMS5003;62336;-26.094;27.994;2022-12-07T13:45:41;2;2;
73973;PMS5003;62336;-26.094;27.994;2022-12-07T13:48:08;3;3;
73973;PMS5003;62336;-26.094;27.994;2022-12-07T13:50:33;2;2;
73973;PMS5003;62336;-26.094;27.994;2022-12-07T13:52:59;2;2;
73973;PMS5003;62336;-26.094;27.994;2022-12-07T13:55:24;2;2;
73973;PMS5003;62336;-26.094;27.994;2022-12-07T13:57:50;1;1;
73973;PMS5003;62336;-26.094;27.994;2022-12-07T14:00:16;2;2;
73973;PMS5003;62336;-26.094;27.994;2022-12-07T14:05:07;2;2;
73973;PMS5003;62336;-26.094;27.994;2022-12-07T14:07:32;1;1;
73973;PMS5003;62336;-26.094;27.994;2022-12-07T14:09:59;2;2;
73973;PMS5003;62336;-26.094;27.994;2022-12-07T14:12:36;2;2;
73973;PMS5003;62336;-26.094;27.994;2022-12-07T14:14:58;2;2;
73973;PMS5003;62336;-26.094;27.994;2022-12-07T14:17:24;2;2;
73973;PMS5003;62336;-26.094;27.994;2022-12-07T14:19:50;2;2;
73973;PMS5003;62336;-26.094;27.994;2022-12-07T14:22:21;2;1;
73973;PMS5003;62336;-26.094;27.994;2022-12-07T14:24:41;2;2;
73973;PMS5003;62336;-26.094;27.994;2022-12-07T14:29:33;4;4;
73973;PMS5003;62336;-26.094;27.994;2022-12-07T14:32:01;3;3;
73973;PMS5003;62336;-26.094;27.994;2022-12-07T14:34:24;2;2;
73973;PMS5003;62336;-26.094;27.994;2022-12-07T14:36:50;2;2;
73973;PMS5003;62336;-26.094;27.994;2022-12-07T14:39:16;2;2;
73973;PMS5003;62336;-26.094;27.994;2022-12-07T14:41:42;4;4;
73973;PMS5003;62336;-26.094;27.994;2022-12-07T14:44:08;3;3;
73973;PMS5003;62336;-26.094;27.994;2022-12-07T14:46:34;4;4;
73973;PMS5003;62336;-26.094;27.994;2022-12-07T14:48:59;4;4;
73973;PMS5003;62336;-26.094;27.994;2022-12-07T14:51:25;4;4;
73973;PMS5003;62336;-26.094;27.994;2022-12-07T14:53:51;4;4;
73973;PMS5003;62336;-26.094;27.994;2022-12-07T14:56:17;4;4;
73973;PMS5003;62336;-26.094;27.994;2022-12-07T14:58:43;6;5;
73973;PMS5003;62336;-26.094;27.994;2022-12-07T15:01:08;6;6;
73973;PMS5003;62336;-26.094;27.994;2022-12-07T15:03:34;7;5;
73973;PMS5003;62336;-26.094;27.994;2022-12-07T15:06:00;5;4;
73973;PMS5003;62336;-26.094;27.994;2022-12-07T15:08:26;5;5;
73973;PMS5003;62336;-26.094;27.994;2022-12-07T15:10:52;4;4;
73973;PMS5003;62336;-26.094;27.994;2022-12-07T15:13:18;4;4;
73973;PMS5003;62336;-26.094;27.994;2022-12-07T15:15:43;4;4;
73973;PMS5003;62336;-26.094;27.994;2022-12-07T15:18:09;3;3;
73973;PMS5003;62336;-26.094;27.994;2022-12-07T15:20:35;9;8;
73973;PMS5003;62336;-26.094;27.994;2022-12-07T15:23:01;9;8;
73973;PMS5003;62336;-26.094;27.994;2022-12-07T15:25:27;13;12;
73973;PMS5003;62336;-26.094;27.994;2022-12-07T15:27:52;11;11;
73973;PMS5003;62336;-26.094;27.994;2022-12-07T15:30:17;11;11;
73973;PMS5003;62336;-26.094;27.994;2022-12-07T15:32:42;15;12;
73973;PMS5003;62336;-26.094;27.994;2022-12-07T15:35:09;13;13;
73973;PMS5003;62336;-26.094;27.994;2022-12-07T15:37:34;12;12;
73973;PMS5003;62336;-26.094;27.994;2022-12-07T15:40:00;14;12;
73973;PMS5003;62336;-26.094;27.994;2022-12-07T15:42:25;13;13;
73973;PMS5003;62336;-26.094;27.994;2022-12-07T15:44:50;15;14;
73973;PMS5003;62336;-26.094;27.994;2022-12-07T15:47:16;14;13;
73973;PMS5003;62336;-26.094;27.994;2022-12-07T15:49:42;12;12;
73973;PMS5003;62336;-26.094;27.994;2022-12-07T15:52:07;13;13;
73973;PMS5003;62336;-26.094;27.994;2022-12-07T15:54:33;14;12;
73973;PMS5003;62336;-26.094;27.994;2022-12-07T15:56:59;11;10;
73973;PMS5003;62336;-26.094;27.994;2022-12-07T15:59:25;12;11;
73973;PMS5003;62336;-26.094;27.994;2022-12-07T16:01:50;11;10;
73973;PMS5003;62336;-26.094;27.994;2022-12-07T16:04:16;10;9;
73973;PMS5003;62336;-26.094;27.994;2022-12-07T16:06:42;7;7;
73973;PMS5003;62336;-26.094;27.994;2022-12-07T16:09:08;9;9;
73973;PMS5003;62336;-26.094;27.994;2022-12-07T16:11:34;10;9;
73973;PMS5003;62336;-26.094;27.994;2022-12-07T16:13:59;10;10;
73973;PMS5003;62336;-26.094;27.994;2022-12-07T16:16:25;10;8;
73973;PMS5003;62336;-26.094;27.994;2022-12-07T16:18:51;9;9;
73973;PMS5003;62336;-26.094;27.994;2022-12-07T16:21:17;9;8;
73973;PMS5003;62336;-26.094;27.994;2022-12-07T16:23:43;11;10;
73973;PMS5003;62336;-26.094;27.994;2022-12-07T16:26:09;5;5;
73973;PMS5003;62336;-26.094;27.994;2022-12-07T16:28:33;6;5;
73973;PMS5003;62336;-26.094;27.994;2022-12-07T16:31:00;5;5;
73973;PMS5003;62336;-26.094;27.994;2022-12-07T16:33:24;5;5;
73973;PMS5003;62336;-26.094;27.994;2022-12-07T16:35:50;6;5;
73973;PMS5003;62336;-26.094;27.994;2022-12-07T16:38:15;6;6;
73973;PMS5003;62336;-26.094;27.994;2022-12-07T16:40:40;8;8;
73973;PMS5003;62336;-26.094;27.994;2022-12-07T16:43:06;7;6;
73973;PMS5003;62336;-26.094;27.994;2022-12-07T16:45:32;7;6;
73973;PMS5003;62336;-26.094;27.994;2022-12-07T16:47:57;12;11;
73973;PMS5003;62336;-26.094;27.994;2022-12-07T16:49:27;7;7;
73973;PMS5003;62336;-26.094;27.994;2022-12-07T16:51:49;9;8;
73973;PMS5003;62336;-26.094;27.994;2022-12-07T16:54:19;9;8;
73973;PMS5003;62336;-26.094;27.994;2022-12-07T16:56:39;10;10;
73973;PMS5003;62336;-26.094;27.994;2022-12-07T16:59:05;10;10;
73973;PMS5003;62336;-26.094;27.994;2022-12-07T17:01:31;11;11;
73973;PMS5003;62336;-26.094;27.994;2022-12-07T17:03:57;8;8;
73973;PMS5003;62336;-26.094;27.994;2022-12-07T17:06:23;9;8;
73973;PMS5003;62336;-26.094;27.994;2022-12-07T17:08:49;7;6;
73973;PMS5003;62336;-26.094;27.994;2022-12-07T17:11:16;7;7;
73973;PMS5003;62336;-26.094;27.994;2022-12-07T17:13:40;6;6;
73973;PMS5003;62336;-26.094;27.994;2022-12-07T17:16:07;7;7;
73973;PMS5003;62336;-26.094;27.994;2022-12-07T17:18:33;12;10;
73973;PMS5003;62336;-26.094;27.994;2022-12-07T17:21:01;7;7;
73973;PMS5003;62336;-26.094;27.994;2022-12-07T17:23:23;8;8;
73973;PMS5003;62336;-26.094;27.994;2022-12-07T17:25:49;7;6;
73973;PMS5003;62336;-26.094;27.994;2022-12-07T17:28:15;9;9;
73973;PMS5003;62336;-26.094;27.994;2022-12-07T17:30:41;6;6;
73973;PMS5003;62336;-26.094;27.994;2022-12-07T17:33:07;13;13;
73973;PMS5003;62336;-26.094;27.994;2022-12-07T17:35:32;10;10;
73973;PMS5003;62336;-26.094;27.994;2022-12-07T17:37:57;10;10;
73973;PMS5003;62336;-26.094;27.994;2022-12-07T17:40:23;12;12;
73973;PMS5003;62336;-26.094;27.994;2022-12-07T17:42:48;10;9;
73973;PMS5003;62336;-26.094;27.994;2022-12-07T17:45:13;13;12;
73973;PMS5003;62336;-26.094;27.994;2022-12-07T17:47:38;10;9;
73973;PMS5003;62336;-26.094;27.994;2022-12-07T17:50:04;10;9;
73973;PMS5003;62336;-26.094;27.994;2022-12-07T17:52:29;16;16;
73973;PMS5003;62336;-26.094;27.994;2022-12-07T17:54:55;18;18;
73973;PMS5003;62336;-26.094;27.994;2022-12-07T17:57:20;21;19;
73973;PMS5003;62336;-26.094;27.994;2022-12-07T17:59:45;17;16;
73973;PMS5003;62336;-26.094;27.994;2022-12-07T18:02:10;17;17;
73973;PMS5003;62336;-26.094;27.994;2022-12-07T18:04:35;21;20;
73973;PMS5003;62336;-26.094;27.994;2022-12-07T18:07:00;19;18;
73973;PMS5003;62336;-26.094;27.994;2022-12-07T18:09:25;17;17;
73973;PMS5003;62336;-26.094;27.994;2022-12-07T18:11:50;25;21;
73973;PMS5003;62336;-26.094;27.994;2022-12-07T18:14:16;14;14;
73973;PMS5003;62336;-26.094;27.994;2022-12-07T18:16:42;18;17;
73973;PMS5003;62336;-26.094;27.994;2022-12-07T18:19:09;16;15;
73973;PMS5003;62336;-26.094;27.994;2022-12-07T18:21:34;15;15;
73973;PMS5003;62336;-26.094;27.994;2022-12-07T18:24:00;14;14;
73973;PMS5003;62336;-26.094;27.994;2022-12-07T18:26:25;16;15;
73973;PMS5003;62336;-26.094;27.994;2022-12-07T18:28:51;21;18;
73973;PMS5003;62336;-26.094;27.994;2022-12-07T18:31:16;13;13;
73973;PMS5003;62336;-26.094;27.994;2022-12-07T18:33:41;16;16;
73973;PMS5003;62336;-26.094;27.994;2022-12-07T18:36:06;13;13;
73973;PMS5003;62336;-26.094;27.994;2022-12-07T18:38:31;14;14;
73973;PMS5003;62336;-26.094;27.994;2022-12-07T18:40:56;17;15;
73973;PMS5003;62336;-26.094;27.994;2022-12-07T18:43:21;19;17;
73973;PMS5003;62336;-26.094;27.994;2022-12-07T18:45:47;20;19;
73973;PMS5003;62336;-26.094;27.994;2022-12-07T18:48:12;17;15;
73973;PMS5003;62336;-26.094;27.994;2022-12-07T18:50:37;19;18;
73973;PMS5003;62336;-26.094;27.994;2022-12-07T18:53:03;20;17;
73973;PMS5003;62336;-26.094;27.994;2022-12-07T18:55:28;20;19;
73973;PMS5003;62336;-26.094;27.994;2022-12-07T18:57:53;19;18;
73973;PMS5003;62336;-26.094;27.994;2022-12-07T19:00:19;19;18;
73973;PMS5003;62336;-26.094;27.994;2022-12-07T19:02:44;18;17;
73973;PMS5003;62336;-26.094;27.994;2022-12-07T19:05:09;20;18;
73973;PMS5003;62336;-26.094;27.994;2022-12-07T19:07:36;15;14;
73973;PMS5003;62336;-26.094;27.994;2022-12-07T19:10:01;17;17;
